createdAt,value
2022-09-10T00:01:26.508Z,1.80
2022-09-10T00:03:54.812Z,2.13
2022-09-10T00:06:25.521Z,1.42
2022-09-10T00:08:53.044Z,1.00
2022-09-10T00:11:20.902Z,0.90
2022-09-10T00:13:48.215Z,0.85
2022-09-10T00:16:19.127Z,1.13
2022-09-10T00:18:47.364Z,1.10
2022-09-10T00:21:17.604Z,0.95
2022-09-10T00:23:47.164Z,1.10
2022-09-10T00:26:22.505Z,0.90
2022-09-10T00:28:50.912Z,1.25
2022-09-10T00:31:20.186Z,1.25
2022-09-10T00:33:46.891Z,1.02
2022-09-10T00:36:28.308Z,1.02
2022-09-10T00:38:58.184Z,1.77
2022-09-10T00:41:26.118Z,1.48
2022-09-10T00:43:58.175Z,1.50
2022-09-10T00:46:33.766Z,1.52
2022-09-10T00:49:03.370Z,1.25
2022-09-10T00:51:32.270Z,2.58
2022-09-10T00:53:59.662Z,1.52
2022-09-10T00:56:26.515Z,2.85
2022-09-10T00:58:53.400Z,3.17
2022-09-10T01:01:20.136Z,2.00
2022-09-10T01:03:47.607Z,1.70
2022-09-10T01:06:14.723Z,1.60
2022-09-10T01:08:41.596Z,2.10
2022-09-10T01:11:37.940Z,2.25
2022-09-10T01:14:17.923Z,1.73
2022-09-10T01:17:03.683Z,1.70
2022-09-10T01:19:49.958Z,1.63
2022-09-10T01:22:23.832Z,1.67
2022-09-10T01:24:54.527Z,1.10
2022-09-10T01:27:39.922Z,1.63
2022-09-10T01:30:30.889Z,1.50
2022-09-10T01:33:07.871Z,2.45
2022-09-10T01:35:45.528Z,1.35
2022-09-10T01:38:17.414Z,1.30
2022-09-10T01:40:44.306Z,1.70
2022-09-10T01:43:15.031Z,1.60
2022-09-10T01:45:51.109Z,2.30
2022-09-10T01:48:28.414Z,1.48
2022-09-10T01:51:09.811Z,1.42
2022-09-10T01:54:03.798Z,1.42
2022-09-10T01:56:35.703Z,1.48
2022-09-10T01:59:38.228Z,1.38
2022-09-10T02:02:11.506Z,1.40
2022-09-10T02:04:38.351Z,1.05
2022-09-10T02:07:06.775Z,1.42
2022-09-10T02:09:33.847Z,1.20
2022-09-10T02:12:02.385Z,1.10
2022-09-10T02:14:55.996Z,1.40
2022-09-10T02:17:47.326Z,1.05
2022-09-10T02:20:14.810Z,1.60
2022-09-10T02:22:48.787Z,1.52
2022-09-10T02:25:16.451Z,1.58
2022-09-10T02:27:44.002Z,1.85
2022-09-10T02:30:11.815Z,1.90
2022-09-10T02:32:39.282Z,2.40
2022-09-10T02:35:06.563Z,1.63
2022-09-10T02:37:33.231Z,1.70
2022-09-10T02:40:00.311Z,1.67
2022-09-10T02:42:27.073Z,1.80
2022-09-10T02:44:54.011Z,1.70
2022-09-10T02:47:21.042Z,1.55
2022-09-10T02:49:47.653Z,2.60
2022-09-10T02:52:14.443Z,1.83
2022-09-10T02:54:41.328Z,2.35
2022-09-10T02:57:10.743Z,1.67
2022-09-10T02:59:37.424Z,2.03
2022-09-10T03:02:04.373Z,1.85
2022-09-10T03:04:31.202Z,1.50
2022-09-10T03:06:57.867Z,1.85
2022-09-10T03:09:28.447Z,2.10
2022-09-10T03:11:55.257Z,1.52
2022-09-10T03:14:24.674Z,1.40
2022-09-10T03:16:51.500Z,1.98
2022-09-10T03:19:18.387Z,1.80
2022-09-10T03:21:47.632Z,1.95
2022-09-10T03:24:15.596Z,1.98
2022-09-10T03:26:44.531Z,1.70
2022-09-10T03:29:12.419Z,1.77
2022-09-10T03:31:40.183Z,1.70
2022-09-10T03:34:06.863Z,1.77
2022-09-10T03:36:33.745Z,1.75
2022-09-10T03:39:00.809Z,1.80
2022-09-10T03:41:30.992Z,2.00
2022-09-10T03:43:58.802Z,1.52
2022-09-10T03:46:26.445Z,1.58
2022-09-10T03:48:55.655Z,2.10
2022-09-10T03:51:24.698Z,1.58
2022-09-10T03:53:51.327Z,1.60
2022-09-10T03:56:21.074Z,2.22
2022-09-10T03:58:49.308Z,2.33
2022-09-10T04:01:17.158Z,2.20
2022-09-10T04:03:47.306Z,1.80
2022-09-10T04:06:16.250Z,2.20
2022-09-10T04:08:46.520Z,2.10
2022-09-10T04:11:15.522Z,2.03
2022-09-10T04:13:43.143Z,2.20
2022-09-10T04:16:12.146Z,2.35
2022-09-10T04:18:39.883Z,2.42
2022-09-10T04:21:06.692Z,2.10
2022-09-10T04:23:34.111Z,2.28
2022-09-10T04:26:14.751Z,1.98
2022-09-10T04:28:43.353Z,1.63
2022-09-10T04:31:10.684Z,2.20
2022-09-10T04:33:37.763Z,1.70
2022-09-10T04:36:06.055Z,2.45
2022-09-10T04:38:34.969Z,1.50
2022-09-10T04:41:01.738Z,1.80
2022-09-10T04:43:29.096Z,1.90
2022-09-10T04:45:56.131Z,2.08
2022-09-10T04:48:23.891Z,1.70
2022-09-10T04:51:14.704Z,1.85
2022-09-10T04:53:40.770Z,1.77
2022-09-10T04:56:08.497Z,1.50
2022-09-10T04:58:39.113Z,1.77
2022-09-10T05:01:07.284Z,2.13
2022-09-10T05:03:34.234Z,2.30
2022-09-10T05:06:02.079Z,1.98
2022-09-10T05:08:29.622Z,2.25
2022-09-10T05:10:59.054Z,1.75
2022-09-10T05:13:25.723Z,1.70
2022-09-10T05:15:52.443Z,1.90
2022-09-10T05:18:19.207Z,1.70
2022-09-10T05:20:45.884Z,1.80
2022-09-10T05:23:12.688Z,1.65
2022-09-10T05:25:40.146Z,1.20
2022-09-10T05:28:06.999Z,1.50
2022-09-10T05:30:33.634Z,1.85
2022-09-10T05:33:01.177Z,1.77
2022-09-10T05:35:38.552Z,1.50
2022-09-10T05:38:08.258Z,1.52
2022-09-10T05:40:37.321Z,1.40
2022-09-10T05:43:04.049Z,1.50
2022-09-10T05:45:30.925Z,1.48
2022-09-10T05:47:57.931Z,1.63
2022-09-10T05:50:24.626Z,1.33
2022-09-10T05:52:52.736Z,1.77
2022-09-10T05:55:19.504Z,1.30
2022-09-10T05:57:47.839Z,2.05
2022-09-10T06:00:17.378Z,1.50
2022-09-10T06:02:58.582Z,1.40
2022-09-10T06:05:39.620Z,1.83
2022-09-10T06:08:08.768Z,1.60
2022-09-10T06:10:38.697Z,1.40
2022-09-10T06:13:07.187Z,1.70
2022-09-10T06:15:35.672Z,1.38
2022-09-10T06:18:02.671Z,1.70
2022-09-10T06:20:29.787Z,1.60
2022-09-10T06:22:56.476Z,1.55
2022-09-10T06:25:23.339Z,1.70
2022-09-10T06:27:50.394Z,1.70
2022-09-10T06:30:17.786Z,1.73
2022-09-10T06:32:47.412Z,2.20
2022-09-10T06:35:14.332Z,1.75
2022-09-10T06:37:41.176Z,1.70
2022-09-10T06:40:09.929Z,2.05
2022-09-10T06:42:37.162Z,1.65
2022-09-10T06:45:17.755Z,2.38
2022-09-10T06:50:39.657Z,1.67
2022-09-10T06:53:06.502Z,1.48
2022-09-10T06:55:35.279Z,1.38
2022-09-10T06:58:03.341Z,1.67
2022-09-10T07:00:32.294Z,1.60
2022-09-10T07:03:01.159Z,1.70
2022-09-10T07:05:29.532Z,1.15
2022-09-10T07:07:57.655Z,1.25
2022-09-10T07:10:24.584Z,1.33
2022-09-10T07:12:52.007Z,1.92
2022-09-10T07:15:20.083Z,1.60
2022-09-10T07:17:46.775Z,1.58
2022-09-10T07:20:14.978Z,2.00
2022-09-10T07:22:46.126Z,1.95
2022-09-10T07:25:14.507Z,1.80
2022-09-10T07:28:13.223Z,1.58
2022-09-10T07:30:46.615Z,1.20
2022-09-10T07:35:43.390Z,1.15
2022-09-10T07:38:14.162Z,0.60
2022-09-10T07:40:43.792Z,1.10
2022-09-10T07:43:10.867Z,0.88
2022-09-10T07:45:37.891Z,1.08
2022-09-10T07:48:05.318Z,0.77
2022-09-10T07:50:36.440Z,0.77
2022-09-10T07:53:03.199Z,0.68
2022-09-10T07:55:31.615Z,0.60
2022-09-10T07:58:00.184Z,1.00
2022-09-10T08:00:29.279Z,0.73
2022-09-10T08:02:59.666Z,1.10
2022-09-10T08:05:29.169Z,0.80
2022-09-10T08:07:55.814Z,0.73
2022-09-10T08:10:25.044Z,0.80
2022-09-10T08:12:52.259Z,0.98
2022-09-10T08:15:18.978Z,0.90
2022-09-10T08:17:46.247Z,1.23
2022-09-10T08:20:13.603Z,0.80
2022-09-10T08:22:43.276Z,0.90
2022-09-10T08:25:10.784Z,0.90
2022-09-10T08:27:37.553Z,0.85
2022-09-10T08:30:08.050Z,0.70
2022-09-10T08:32:36.151Z,0.70
2022-09-10T08:35:05.044Z,0.60
2022-09-10T08:37:33.923Z,0.68
2022-09-10T08:40:01.815Z,0.85
2022-09-10T08:42:46.448Z,0.90
2022-09-10T08:45:28.110Z,0.50
2022-09-10T08:48:06.675Z,0.75
2022-09-10T08:50:50.292Z,0.55
2022-09-10T08:53:26.677Z,0.75
2022-09-10T08:55:58.692Z,0.70
2022-09-10T08:58:42.563Z,0.70
2022-09-10T09:01:15.491Z,0.68
2022-09-10T09:03:45.436Z,0.60
2022-09-10T09:06:25.133Z,0.70
2022-09-10T09:08:52.268Z,0.77
2022-09-10T09:11:41.567Z,0.80
2022-09-10T09:14:36.151Z,0.77
2022-09-10T09:17:16.868Z,0.70
2022-09-10T09:19:57.174Z,0.70
2022-09-10T09:22:51.550Z,0.68
2022-09-10T09:25:46.258Z,0.50
2022-09-10T09:28:43.586Z,0.82
2022-09-10T09:31:38.043Z,0.80
2022-09-10T09:34:19.324Z,0.77
2022-09-10T09:36:53.274Z,0.88
2022-09-10T09:39:26.484Z,1.52
2022-09-10T09:42:08.187Z,0.93
2022-09-10T09:44:48.649Z,0.80
2022-09-10T09:47:15.542Z,0.60
2022-09-10T09:49:44.269Z,0.82
2022-09-10T09:52:21.513Z,0.80
2022-09-10T09:55:15.777Z,1.10
2022-09-10T09:57:43.069Z,0.60
2022-09-10T10:00:37.255Z,1.17
2022-09-10T10:03:16.673Z,1.08
2022-09-10T10:05:43.974Z,0.82
2022-09-10T10:08:30.988Z,1.40
2022-09-10T10:10:58.202Z,0.90
2022-09-10T10:13:25.392Z,0.70
2022-09-10T10:15:56.607Z,1.05
2022-09-10T10:18:23.309Z,0.70
2022-09-10T10:21:11.164Z,0.88
2022-09-10T10:23:38.774Z,0.50
2022-09-10T10:26:30.563Z,0.73
2022-09-10T10:29:04.242Z,1.00
2022-09-10T10:31:42.260Z,1.25
2022-09-10T10:34:28.340Z,0.50
2022-09-10T10:37:13.920Z,0.47
2022-09-10T10:40:02.412Z,0.50
2022-09-10T10:42:50.960Z,0.50
2022-09-10T10:45:49.195Z,0.50
2022-09-10T10:48:47.347Z,0.70
2022-09-10T10:51:33.444Z,0.82
2022-09-10T10:54:37.536Z,0.63
2022-09-10T10:57:22.831Z,0.50
2022-09-10T11:00:13.053Z,0.82
2022-09-10T11:03:16.040Z,0.90
2022-09-10T11:05:51.658Z,0.73
2022-09-10T11:08:23.811Z,0.90
2022-09-10T11:10:58.774Z,0.70
2022-09-10T11:13:45.516Z,0.80
2022-09-10T11:16:16.904Z,0.90
2022-09-10T11:19:03.388Z,0.80
2022-09-10T11:21:52.058Z,0.70
2022-09-10T11:24:55.443Z,0.95
2022-09-10T11:27:30.172Z,0.82
2022-09-10T11:30:04.747Z,0.55
2022-09-10T11:32:42.858Z,1.10
2022-09-10T11:35:34.438Z,1.08
2022-09-10T11:38:18.604Z,0.82
2022-09-10T11:41:31.589Z,0.30
2022-09-10T11:44:18.035Z,0.85
2022-09-10T11:47:26.112Z,0.95
2022-09-10T11:50:02.284Z,0.63
2022-09-10T11:52:31.012Z,0.75
2022-09-10T11:54:58.539Z,1.10
2022-09-10T11:57:34.865Z,0.70
2022-09-10T12:00:16.303Z,1.17
2022-09-10T12:03:41.025Z,0.75
2022-09-10T12:06:19.139Z,0.70
2022-09-10T12:08:51.302Z,1.02
2022-09-10T12:11:35.556Z,1.45
2022-09-10T12:14:07.577Z,0.95
2022-09-10T12:16:42.459Z,0.88
2022-09-10T12:19:29.631Z,0.75
2022-09-10T12:22:01.646Z,0.75
2022-09-10T12:24:33.836Z,0.90
2022-09-10T12:27:01.723Z,1.05
2022-09-10T12:29:40.721Z,0.85
2022-09-10T12:32:19.314Z,1.00
2022-09-10T12:34:48.540Z,1.00
2022-09-10T12:37:27.937Z,0.82
2022-09-10T12:40:26.383Z,1.02
2022-09-10T12:42:59.377Z,0.60
2022-09-10T12:46:12.706Z,0.70
2022-09-10T12:48:45.979Z,1.00
2022-09-10T12:51:18.448Z,0.93
2022-09-10T12:56:18.038Z,0.90
2022-09-10T12:59:07.435Z,0.70
2022-09-10T13:01:41.439Z,1.10
2022-09-10T13:04:30.744Z,0.98
2022-09-10T13:07:25.517Z,1.27
2022-09-10T13:10:21.865Z,0.68
2022-09-10T13:12:51.725Z,0.85
2022-09-10T13:15:20.845Z,0.73
2022-09-10T13:17:47.420Z,0.90
2022-09-10T13:20:20.883Z,0.77
2022-09-10T13:22:56.063Z,1.10
2022-09-10T13:25:43.149Z,0.65
2022-09-10T13:28:34.800Z,1.15
2022-09-10T13:31:11.121Z,1.10
2022-09-10T13:33:49.862Z,0.65
2022-09-10T13:36:38.191Z,1.30
2022-09-10T13:39:15.345Z,0.60
2022-09-10T13:42:13.110Z,0.75
2022-09-10T13:44:46.056Z,0.63
2022-09-10T13:47:19.323Z,1.30
2022-09-10T13:49:55.754Z,0.80
2022-09-10T13:52:29.205Z,0.93
2022-09-10T13:54:56.649Z,0.95
2022-09-10T13:57:40.899Z,0.95
2022-09-10T14:00:19.023Z,0.88
2022-09-10T14:02:52.487Z,0.73
2022-09-10T14:05:24.283Z,1.00
2022-09-10T14:07:51.228Z,0.75
2022-09-10T14:10:18.675Z,0.60
2022-09-10T14:12:45.969Z,0.60
2022-09-10T14:15:17.187Z,0.90
2022-09-10T14:17:48.138Z,0.70
2022-09-10T14:20:23.976Z,0.63
2022-09-10T14:22:58.700Z,0.60
2022-09-10T14:25:52.463Z,0.60
2022-09-10T14:28:27.637Z,0.90
2022-09-10T14:31:22.979Z,1.10
2022-09-10T14:33:49.696Z,1.10
2022-09-10T14:36:28.689Z,1.30
2022-09-10T14:39:01.198Z,0.75
2022-09-10T14:41:29.964Z,1.27
2022-09-10T14:44:32.287Z,0.90
2022-09-10T14:47:11.112Z,1.00
2022-09-10T14:49:39.567Z,1.05
2022-09-10T14:52:07.888Z,1.60
2022-09-10T14:54:37.248Z,0.98
2022-09-10T14:57:09.926Z,0.75
2022-09-10T14:59:41.507Z,0.77
2022-09-10T15:02:17.778Z,0.90
2022-09-10T15:04:45.281Z,0.77
2022-09-10T15:07:13.588Z,0.85
2022-09-10T15:09:41.072Z,0.70
2022-09-10T15:12:09.614Z,0.68
2022-09-10T15:14:36.533Z,0.70
2022-09-10T15:17:03.782Z,0.90
2022-09-10T15:19:30.695Z,0.60
2022-09-10T15:21:58.129Z,0.65
2022-09-10T15:24:26.495Z,1.17
2022-09-10T15:26:53.184Z,1.17
2022-09-10T15:29:20.184Z,0.80
2022-09-10T15:31:47.116Z,1.02
2022-09-10T15:34:14.432Z,0.95
2022-09-10T15:36:41.474Z,1.20
2022-09-10T15:39:13.145Z,1.80
2022-09-10T15:41:44.103Z,1.33
2022-09-10T15:44:11.265Z,1.27
2022-09-10T15:46:42.401Z,1.58
2022-09-10T15:49:09.055Z,2.05
2022-09-10T15:51:35.741Z,1.48
2022-09-10T15:54:05.367Z,1.73
2022-09-10T15:56:32.730Z,1.70
2022-09-10T15:58:59.527Z,1.65
2022-09-10T16:01:28.235Z,1.70
2022-09-10T16:04:02.748Z,2.53
2022-09-10T16:06:32.750Z,1.83
2022-09-10T16:09:02.053Z,1.73
2022-09-10T16:11:34.521Z,1.90
2022-09-10T16:16:32.403Z,1.90
2022-09-10T16:19:00.448Z,2.28
2022-09-10T16:21:30.122Z,2.10
2022-09-10T16:23:58.060Z,2.58
2022-09-10T16:26:27.932Z,1.85
2022-09-10T16:28:57.575Z,2.08
2022-09-10T16:31:25.851Z,2.00
2022-09-10T16:33:54.956Z,2.17
2022-09-10T16:36:23.754Z,1.65
2022-09-10T16:38:55.388Z,1.80
2022-09-10T16:41:23.148Z,1.63
2022-09-10T16:43:50.598Z,1.77
2022-09-10T16:46:17.584Z,1.58
2022-09-10T16:48:44.723Z,1.83
2022-09-10T16:51:16.451Z,1.30
2022-09-10T16:53:44.552Z,1.27
2022-09-10T16:56:13.460Z,1.80
2022-09-10T16:58:41.432Z,1.40
2022-09-10T17:01:09.904Z,1.60
2022-09-10T17:03:40.384Z,1.67
2022-09-10T17:06:13.897Z,2.05
2022-09-10T17:08:40.895Z,1.67
2022-09-10T17:11:08.872Z,1.10
2022-09-10T17:13:38.677Z,1.58
2022-09-10T17:16:29.570Z,1.50
2022-09-10T17:18:58.197Z,1.80
2022-09-10T17:21:26.576Z,1.52
2022-09-10T17:23:53.918Z,1.52
2022-09-10T17:26:20.670Z,1.70
2022-09-10T17:28:57.465Z,1.52
2022-09-10T17:31:25.180Z,1.75
2022-09-10T17:33:52.060Z,1.90
2022-09-10T17:36:19.028Z,1.70
2022-09-10T17:38:46.202Z,1.88
2022-09-10T17:41:14.644Z,1.70
2022-09-10T17:43:42.864Z,1.90
2022-09-10T17:46:14.975Z,1.90
2022-09-10T17:48:45.881Z,2.15
2022-09-10T17:51:17.711Z,1.90
2022-09-10T17:53:44.890Z,1.67
2022-09-10T17:56:13.991Z,1.60
2022-09-10T17:58:41.073Z,2.20
2022-09-10T18:01:14.227Z,1.98
2022-09-10T18:03:41.049Z,1.52
2022-09-10T18:06:09.969Z,1.42
2022-09-10T18:08:37.852Z,2.10
2022-09-10T18:11:13.986Z,1.85
2022-09-10T18:13:40.791Z,1.55
2022-09-10T18:16:09.765Z,1.52
2022-09-10T18:18:37.627Z,1.73
2022-09-10T18:21:23.974Z,1.25
2022-09-10T18:23:53.028Z,1.60
2022-09-10T18:26:21.710Z,1.50
2022-09-10T18:28:53.812Z,1.67
2022-09-10T18:31:20.566Z,1.80
2022-09-10T18:33:47.678Z,1.65
2022-09-10T18:36:19.276Z,2.15
2022-09-10T18:38:47.274Z,1.50
2022-09-10T18:41:27.824Z,1.50
2022-09-10T18:43:57.609Z,1.90
2022-09-10T18:46:26.155Z,1.83
2022-09-10T18:48:53.287Z,1.60
2022-09-10T18:51:23.484Z,1.70
2022-09-10T18:53:58.328Z,2.00
2022-09-10T18:56:27.478Z,1.80
2022-09-10T18:58:56.082Z,1.75
2022-09-10T19:01:23.995Z,1.50
2022-09-10T19:03:51.108Z,1.77
2022-09-10T19:06:24.124Z,1.60
2022-09-10T19:08:53.270Z,1.80
2022-09-10T19:11:22.002Z,1.75
2022-09-10T19:13:55.977Z,1.42
2022-09-10T19:16:25.143Z,1.20
2022-09-10T19:18:53.838Z,1.80
2022-09-10T19:21:21.498Z,1.50
2022-09-10T19:23:49.691Z,1.63
2022-09-10T19:26:17.494Z,1.40
2022-09-10T19:28:45.241Z,1.27
2022-09-10T19:31:15.010Z,1.88
2022-09-10T19:33:42.079Z,1.60
2022-09-10T19:36:17.615Z,1.50
2022-09-10T19:38:44.444Z,1.30
2022-09-10T19:41:19.474Z,1.52
2022-09-10T19:43:47.986Z,1.35
2022-09-10T19:46:15.749Z,1.50
2022-09-10T19:48:43.564Z,1.88
2022-09-10T19:51:20.266Z,1.73
2022-09-10T19:53:47.781Z,1.77
2022-09-10T19:56:20.472Z,1.85
2022-09-10T19:58:52.341Z,1.52
2022-09-10T20:01:21.972Z,1.40
2022-09-10T20:03:50.750Z,1.52
2022-09-10T20:06:18.826Z,1.60
2022-09-10T20:08:47.322Z,1.85
2022-09-10T20:11:22.623Z,1.70
2022-09-10T20:13:53.345Z,1.33
2022-09-10T20:16:20.134Z,1.60
2022-09-10T20:18:47.023Z,1.50
2022-09-10T20:21:20.016Z,1.38
2022-09-10T20:23:50.959Z,1.40
2022-09-10T20:26:29.257Z,1.40
2022-09-10T20:29:01.494Z,1.40
2022-09-10T20:31:30.221Z,1.52
2022-09-10T20:34:02.148Z,1.35
2022-09-10T20:36:29.489Z,1.40
2022-09-10T20:38:56.311Z,1.30
2022-09-10T20:41:24.072Z,1.50
2022-09-10T20:43:54.264Z,1.90
2022-09-10T20:46:22.381Z,1.40
2022-09-10T20:48:50.458Z,1.45
2022-09-10T20:51:18.116Z,1.20
2022-09-10T20:53:45.844Z,1.27
2022-09-10T20:56:14.740Z,1.13
2022-09-10T20:58:41.758Z,1.25
2022-09-10T21:01:19.025Z,1.40
2022-09-10T21:03:50.261Z,0.98
2022-09-10T21:06:21.505Z,1.10
2022-09-10T21:08:49.475Z,0.90
2022-09-10T21:11:18.307Z,1.50
2022-09-10T21:13:50.451Z,1.20
2022-09-10T21:16:28.050Z,1.33
2022-09-10T21:19:00.877Z,1.20
2022-09-10T21:21:32.297Z,1.00
2022-09-10T21:24:01.231Z,1.27
2022-09-10T21:26:29.918Z,1.20
2022-09-10T21:28:58.881Z,1.30
2022-09-10T21:31:27.514Z,1.20
2022-09-10T21:34:02.661Z,1.20
2022-09-10T21:36:30.932Z,1.17
2022-09-10T21:39:00.043Z,1.00
2022-09-10T21:41:28.567Z,1.15
2022-09-10T21:43:55.296Z,1.30
2022-09-10T21:46:22.103Z,1.30
2022-09-10T21:48:48.712Z,1.42
2022-09-10T21:51:17.260Z,1.10
2022-09-10T21:53:44.614Z,1.13
2022-09-10T21:56:17.180Z,1.20
2022-09-10T22:01:11.912Z,1.70
2022-09-10T22:03:39.942Z,1.50
2022-09-10T22:06:14.018Z,1.33
2022-09-10T22:08:42.886Z,1.20
2022-09-10T22:11:24.416Z,1.20
2022-09-10T22:13:53.230Z,1.42
2022-09-10T22:16:21.038Z,0.85
2022-09-10T22:18:47.972Z,1.40
2022-09-10T22:21:15.402Z,1.20
2022-09-10T22:23:42.069Z,1.10
2022-09-10T22:26:12.835Z,1.10
2022-09-10T22:28:39.930Z,1.10
2022-09-10T22:31:10.365Z,1.83
2022-09-10T22:33:38.617Z,1.98
2022-09-10T22:36:16.253Z,1.63
2022-09-10T22:38:43.423Z,1.13
2022-09-10T22:41:10.422Z,1.08
2022-09-10T22:43:40.805Z,1.35
2022-09-10T22:46:08.433Z,1.20
2022-09-10T22:48:37.779Z,1.80
2022-09-10T22:51:11.386Z,1.38
2022-09-10T22:53:40.259Z,1.75
2022-09-10T22:56:06.991Z,1.48
2022-09-10T22:58:37.259Z,1.67
2022-09-10T23:01:08.511Z,1.35
2022-09-10T23:03:35.653Z,1.88
2022-09-10T23:06:12.064Z,2.03
2022-09-10T23:08:39.740Z,2.40
2022-09-10T23:11:18.520Z,1.70
2022-09-10T23:13:46.734Z,2.28
2022-09-10T23:16:16.157Z,1.92
2022-09-10T23:18:46.551Z,1.88
2022-09-10T23:21:14.057Z,1.83
2022-09-10T23:23:48.306Z,1.92
2022-09-10T23:26:15.897Z,1.70
2022-09-10T23:28:43.623Z,1.90
2022-09-10T23:31:13.774Z,2.20
2022-09-10T23:33:41.932Z,1.60
2022-09-10T23:36:09.961Z,1.83
2022-09-10T23:38:36.640Z,1.73
2022-09-10T23:41:03.539Z,1.90
2022-09-10T23:43:30.173Z,2.03
2022-09-10T23:45:56.887Z,2.17
2022-09-10T23:48:24.605Z,1.83
2022-09-10T23:50:52.811Z,2.13
2022-09-10T23:53:19.844Z,2.53
2022-09-10T23:55:47.106Z,2.08
2022-09-10T23:58:14.736Z,2.20
